createdAt,value
2022-10-31T00:00:50.865Z,17.08
2022-10-31T00:03:19.532Z,13.88
2022-10-31T00:05:49.735Z,13.75
2022-10-31T00:08:18.611Z,19.85
2022-10-31T00:10:48.159Z,12.95
2022-10-31T00:13:16.988Z,9.87
2022-10-31T00:15:44.910Z,14.73
2022-10-31T00:18:13.085Z,15.98
2022-10-31T00:20:41.230Z,10.77
2022-10-31T00:23:10.967Z,10.65
2022-10-31T00:25:40.282Z,8.75
2022-10-31T00:28:13.117Z,13.57
2022-10-31T00:30:41.118Z,12.95
2022-10-31T00:33:08.986Z,13.45
2022-10-31T00:35:38.599Z,15.93
2022-10-31T00:38:06.521Z,13.68
2022-10-31T00:40:34.493Z,11.52
2022-10-31T00:43:02.932Z,16.70
2022-10-31T00:45:32.551Z,10.82
2022-10-31T00:48:00.561Z,11.27
2022-10-31T00:50:28.726Z,10.98
2022-10-31T00:52:56.526Z,14.25
2022-10-31T00:55:24.405Z,13.18
2022-10-31T00:57:52.820Z,12.63
2022-10-31T01:00:21.155Z,11.98
2022-10-31T01:02:50.950Z,9.63
2022-10-31T01:05:18.902Z,12.18
2022-10-31T01:07:47.495Z,14.80
2022-10-31T01:10:15.723Z,11.35
2022-10-31T01:12:46.893Z,10.10
2022-10-31T01:15:17.510Z,14.38
2022-10-31T01:17:45.392Z,16.00
2022-10-31T01:20:15.980Z,20.75
2022-10-31T01:25:12.476Z,11.60
2022-10-31T01:27:40.410Z,13.35
2022-10-31T01:30:10.572Z,9.02
2022-10-31T01:32:38.503Z,8.98
2022-10-31T01:35:06.653Z,14.77
2022-10-31T01:37:36.098Z,14.50
2022-10-31T01:40:04.446Z,10.35
2022-10-31T01:42:32.276Z,13.15
2022-10-31T01:45:02.652Z,12.35
2022-10-31T01:47:39.765Z,12.80
2022-10-31T01:50:15.665Z,14.13
2022-10-31T01:52:48.655Z,14.40
2022-10-31T01:55:25.150Z,12.10
2022-10-31T01:57:59.216Z,11.52
2022-10-31T02:00:27.569Z,13.88
2022-10-31T02:02:57.008Z,17.88
2022-10-31T02:05:27.589Z,12.10
2022-10-31T02:08:01.767Z,16.80
2022-10-31T02:10:32.691Z,10.73
2022-10-31T02:13:03.888Z,16.20
2022-10-31T02:15:33.888Z,11.05
2022-10-31T02:18:02.523Z,10.77
2022-10-31T02:20:35.029Z,12.85
2022-10-31T02:23:32.499Z,14.93
2022-10-31T02:26:22.613Z,11.45
2022-10-31T02:29:22.121Z,10.13
2022-10-31T02:32:01.323Z,12.68
2022-10-31T02:34:38.280Z,12.00
2022-10-31T02:37:11.772Z,10.35
2022-10-31T02:39:46.803Z,14.70
2022-10-31T02:42:30.339Z,11.38
2022-10-31T02:45:03.949Z,12.50
2022-10-31T02:47:38.644Z,14.45
2022-10-31T02:50:11.054Z,10.27
2022-10-31T02:52:40.635Z,14.10
2022-10-31T02:55:13.557Z,12.70
2022-10-31T02:57:43.804Z,11.65
2022-10-31T03:00:12.687Z,14.95
2022-10-31T03:03:04.766Z,40.25
2022-10-31T03:05:45.465Z,12.80
2022-10-31T03:08:23.570Z,15.20
2022-10-31T03:10:57.057Z,25.48
2022-10-31T03:13:36.809Z,9.95
2022-10-31T03:16:12.530Z,9.27
2022-10-31T03:18:44.807Z,15.02
2022-10-31T03:21:16.763Z,11.45
2022-10-31T03:23:47.019Z,13.73
2022-10-31T03:26:23.035Z,12.40
2022-10-31T03:28:55.123Z,18.27
2022-10-31T03:31:28.747Z,18.10
2022-10-31T03:34:00.570Z,25.00
2022-10-31T03:36:32.442Z,21.30
2022-10-31T03:39:02.206Z,13.68
2022-10-31T03:41:33.408Z,8.00
2022-10-31T03:44:05.904Z,9.30
2022-10-31T03:46:35.506Z,12.25
2022-10-31T03:49:06.246Z,12.10
2022-10-31T03:51:42.443Z,7.40
2022-10-31T03:54:17.842Z,13.68
2022-10-31T03:56:52.720Z,10.45
2022-10-31T03:59:28.275Z,11.73
2022-10-31T04:02:02.309Z,8.30
2022-10-31T04:04:32.575Z,11.82
2022-10-31T04:07:03.608Z,17.75
2022-10-31T04:12:06.409Z,22.05
2022-10-31T04:14:55.002Z,15.15
2022-10-31T04:17:25.850Z,13.07
2022-10-31T04:19:55.152Z,15.48
2022-10-31T04:22:23.270Z,11.52
2022-10-31T04:24:51.150Z,12.10
2022-10-31T04:27:19.821Z,20.65
2022-10-31T04:29:50.735Z,30.10
2022-10-31T04:32:19.905Z,22.77
2022-10-31T04:34:47.868Z,18.25
2022-10-31T04:37:17.183Z,18.95
2022-10-31T04:39:45.160Z,20.73
2022-10-31T04:42:31.973Z,28.63
2022-10-31T04:45:02.347Z,23.25
2022-10-31T04:47:33.976Z,25.70
2022-10-31T04:50:02.827Z,22.38
2022-10-31T04:52:32.069Z,19.77
2022-10-31T04:55:00.006Z,30.90
2022-10-31T05:00:22.486Z,38.97
2022-10-31T05:02:54.362Z,35.17
2022-10-31T05:07:52.944Z,48.20
2022-10-31T05:10:25.708Z,40.13
2022-10-31T05:15:41.458Z,41.78
2022-10-31T05:18:27.984Z,33.47
2022-10-31T05:21:17.589Z,39.67
2022-10-31T05:23:56.339Z,43.65
2022-10-31T05:26:25.830Z,41.63
2022-10-31T05:28:55.429Z,47.70
2022-10-31T05:31:24.893Z,36.88
2022-10-31T05:33:54.588Z,47.83
2022-10-31T05:36:41.065Z,42.50
2022-10-31T05:39:20.672Z,36.10
2022-10-31T05:41:51.482Z,42.70
2022-10-31T05:44:28.084Z,32.92
2022-10-31T05:47:07.790Z,22.20
2022-10-31T05:49:54.353Z,31.65
2022-10-31T05:52:41.031Z,41.72
2022-10-31T05:55:20.766Z,26.60
2022-10-31T05:58:04.399Z,24.98
2022-10-31T06:00:35.302Z,28.20
2022-10-31T06:05:50.630Z,26.10
2022-10-31T06:08:22.324Z,15.65
2022-10-31T06:10:54.071Z,24.92
2022-10-31T06:13:30.974Z,28.92
2022-10-31T06:18:40.906Z,29.88
2022-10-31T06:21:11.496Z,37.15
2022-10-31T06:23:41.471Z,21.05
2022-10-31T06:26:45.963Z,32.65
2022-10-31T06:29:14.540Z,25.15
